createdAt,value
2019-03-06T00:00:46.809Z,7.98
2019-03-06T00:03:15.491Z,7.95
2019-03-06T00:05:44.166Z,7.79
2019-03-06T00:08:12.865Z,7.74
2019-03-06T00:10:41.514Z,7.65
2019-03-06T00:13:10.175Z,7.63
2019-03-06T00:15:38.841Z,7.61
2019-03-06T00:18:07.598Z,7.55
2019-03-06T00:20:36.281Z,7.47
2019-03-06T00:23:07.818Z,7.53
2019-03-06T00:25:36.482Z,7.53
2019-03-06T00:28:05.257Z,7.51
2019-03-06T00:30:33.933Z,7.62
2019-03-06T00:33:03.637Z,7.63
2019-03-06T00:35:33.874Z,7.80
2019-03-06T00:38:02.541Z,7.94
2019-03-06T00:40:33.263Z,7.84
2019-03-06T00:43:01.958Z,7.74
2019-03-06T00:45:30.630Z,7.64
2019-03-06T00:47:59.301Z,7.63
2019-03-06T00:50:27.973Z,7.50
2019-03-06T00:52:56.704Z,7.48
2019-03-06T00:55:25.381Z,7.31
2019-03-06T00:57:54.093Z,7.30
2019-03-06T01:00:25.437Z,7.26
2019-03-06T01:02:54.099Z,7.24
2019-03-06T01:05:23.095Z,7.26
2019-03-06T01:07:51.998Z,7.26
2019-03-06T01:10:20.736Z,7.16
2019-03-06T01:12:49.397Z,6.92
2019-03-06T01:15:18.943Z,6.86
2019-03-06T01:17:47.913Z,6.90
2019-03-06T01:20:16.996Z,7.02
2019-03-06T01:22:45.700Z,7.01
2019-03-06T01:25:18.965Z,6.82
2019-03-06T01:27:47.669Z,6.93
2019-03-06T01:30:19.524Z,7.01
2019-03-06T01:32:49.957Z,6.97
2019-03-06T01:35:36.364Z,7.02
2019-03-06T01:38:22.305Z,7.03
2019-03-06T01:40:55.598Z,7.09
2019-03-06T01:43:26.005Z,7.16
2019-03-06T01:45:54.667Z,7.08
2019-03-06T01:48:23.357Z,6.97
2019-03-06T01:50:52.027Z,6.82
2019-03-06T01:53:20.786Z,6.75
2019-03-06T01:55:49.587Z,6.65
2019-03-06T01:58:18.367Z,6.57
2019-03-06T02:00:47.031Z,6.44
2019-03-06T02:03:15.705Z,6.45
2019-03-06T02:05:44.409Z,6.41
2019-03-06T02:08:13.689Z,6.33
2019-03-06T02:10:42.395Z,6.34
2019-03-06T02:13:11.370Z,6.34
2019-03-06T02:15:40.041Z,6.33
2019-03-06T02:18:08.739Z,6.34
2019-03-06T02:20:37.612Z,6.27
2019-03-06T02:23:06.278Z,6.22
2019-03-06T02:25:34.948Z,6.20
2019-03-06T02:28:03.835Z,6.11
2019-03-06T02:30:32.525Z,6.13
2019-03-06T02:33:01.294Z,6.02
2019-03-06T02:35:29.990Z,6.02
2019-03-06T02:37:58.670Z,5.94
2019-03-06T02:40:27.370Z,5.95
2019-03-06T02:42:56.047Z,6.00
2019-03-06T02:45:24.696Z,5.98
2019-03-06T02:47:53.378Z,6.01
2019-03-06T02:50:22.516Z,6.04
2019-03-06T02:52:51.964Z,5.97
2019-03-06T02:55:22.179Z,5.93
2019-03-06T02:58:04.510Z,5.96
2019-03-06T03:00:35.031Z,5.99
2019-03-06T03:03:09.351Z,5.98
2019-03-06T03:05:39.644Z,6.04
2019-03-06T03:08:08.674Z,6.18
2019-03-06T03:10:37.347Z,6.33
2019-03-06T03:13:06.187Z,6.36
2019-03-06T03:15:34.853Z,6.42
2019-03-06T03:18:03.511Z,6.39
2019-03-06T03:20:32.256Z,6.35
2019-03-06T03:23:00.913Z,6.24
2019-03-06T03:25:29.761Z,6.19
2019-03-06T03:27:58.446Z,6.15
2019-03-06T03:30:27.158Z,6.05
2019-03-06T03:32:55.959Z,6.04
2019-03-06T03:35:24.739Z,6.16
2019-03-06T03:37:53.633Z,6.20
2019-03-06T03:40:22.308Z,6.26
2019-03-06T03:42:51.368Z,6.33
2019-03-06T03:45:20.047Z,6.41
2019-03-06T03:47:48.751Z,6.37
2019-03-06T03:50:17.414Z,6.42
2019-03-06T03:52:46.090Z,6.41
2019-03-06T03:55:18.249Z,6.30
2019-03-06T03:57:46.928Z,6.33
2019-03-06T04:00:17.528Z,6.43
2019-03-06T04:02:46.536Z,6.45
2019-03-06T04:05:15.195Z,6.43
2019-03-06T04:07:44.372Z,6.42
2019-03-06T04:10:14.185Z,6.40
2019-03-06T04:12:42.866Z,6.36
2019-03-06T04:15:18.829Z,6.42
2019-03-06T04:17:47.515Z,6.29
2019-03-06T04:20:16.967Z,6.53
2019-03-06T04:22:45.689Z,6.52
2019-03-06T04:25:14.478Z,6.51
2019-03-06T04:27:43.144Z,6.50
2019-03-06T04:30:16.190Z,6.38
2019-03-06T04:32:44.851Z,6.37
2019-03-06T04:35:13.629Z,6.42
2019-03-06T04:37:42.304Z,6.44
2019-03-06T04:40:13.925Z,6.41
2019-03-06T04:42:42.600Z,6.35
2019-03-06T04:45:18.566Z,6.37
2019-03-06T04:47:47.241Z,6.44
2019-03-06T04:50:16.107Z,6.38
2019-03-06T04:52:44.945Z,6.50
2019-03-06T04:55:14.826Z,6.59
2019-03-06T04:57:43.794Z,6.69
2019-03-06T05:00:17.629Z,6.73
2019-03-06T05:02:46.352Z,6.77
2019-03-06T05:05:15.072Z,6.83
2019-03-06T05:07:43.760Z,6.83
2019-03-06T05:10:13.232Z,6.88
2019-03-06T05:12:42.325Z,6.86
2019-03-06T05:15:13.363Z,6.87
2019-03-06T05:17:43.592Z,6.75
2019-03-06T05:20:12.375Z,6.71
2019-03-06T05:22:41.004Z,6.62
2019-03-06T05:25:09.666Z,6.57
2019-03-06T05:27:38.369Z,6.74
2019-03-06T05:30:10.805Z,6.89
2019-03-06T05:32:39.475Z,6.99
2019-03-06T05:35:14.245Z,7.23
2019-03-06T05:37:46.148Z,7.50
2019-03-06T05:40:14.818Z,7.74
2019-03-06T05:42:43.479Z,7.93
2019-03-06T05:45:12.186Z,8.11
2019-03-06T05:47:40.938Z,8.16
2019-03-06T05:50:09.833Z,8.14
2019-03-06T05:52:38.496Z,7.97
2019-03-06T05:55:08.173Z,7.92
2019-03-06T05:57:36.859Z,7.97
2019-03-06T06:00:14.677Z,8.14
2019-03-06T06:02:43.415Z,8.30
2019-03-06T06:05:14.011Z,8.57
2019-03-06T06:07:43.256Z,8.75
2019-03-06T06:10:14.187Z,8.76
2019-03-06T06:12:42.895Z,8.51
2019-03-06T06:15:13.428Z,8.55
2019-03-06T06:17:42.132Z,8.65
2019-03-06T06:20:12.560Z,8.78
2019-03-06T06:22:58.875Z,8.83
2019-03-06T06:25:28.605Z,8.85
2019-03-06T06:27:57.270Z,8.90
2019-03-06T06:30:26.135Z,9.03
2019-03-06T06:32:54.810Z,9.01
2019-03-06T06:35:23.683Z,8.92
2019-03-06T06:37:52.377Z,9.01
2019-03-06T06:40:21.157Z,9.24
2019-03-06T06:42:50.272Z,9.43
2019-03-06T06:45:19.202Z,9.60
2019-03-06T06:48:10.105Z,9.63
2019-03-06T06:50:44.471Z,9.47
2019-03-06T06:53:27.915Z,9.38
2019-03-06T06:56:12.097Z,9.34
2019-03-06T06:59:00.088Z,9.46
2019-03-06T07:01:33.350Z,9.50
2019-03-06T07:04:18.517Z,9.81
2019-03-06T07:07:07.080Z,9.96
2019-03-06T07:09:46.463Z,10.33
2019-03-06T07:12:19.726Z,10.59
2019-03-06T07:14:52.909Z,10.65
2019-03-06T07:17:23.137Z,10.72
2019-03-06T07:19:53.470Z,10.94
2019-03-06T07:22:29.509Z,10.82
2019-03-06T07:24:59.798Z,11.09
2019-03-06T07:27:30.181Z,11.56
2019-03-06T07:30:06.322Z,12.47
2019-03-06T07:32:36.618Z,13.34
2019-03-06T07:35:59.579Z,13.74
2019-03-06T07:38:28.663Z,14.12
2019-03-06T07:41:01.699Z,14.74
2019-03-06T07:43:48.333Z,15.67
2019-03-06T07:46:36.862Z,15.65
2019-03-06T07:49:19.462Z,15.92
2019-03-06T07:51:52.454Z,16.85
2019-03-06T07:54:29.036Z,16.47
2019-03-06T07:57:10.961Z,16.58
2019-03-06T07:59:40.019Z,16.40
2019-03-06T08:02:21.022Z,15.60
2019-03-06T08:04:54.333Z,15.92
2019-03-06T08:07:26.275Z,16.68
2019-03-06T08:09:55.304Z,16.99
2019-03-06T08:12:25.640Z,17.15
2019-03-06T08:15:07.784Z,16.37
2019-03-06T08:17:41.074Z,16.00
2019-03-06T08:20:27.954Z,15.85
2019-03-06T08:23:04.273Z,15.76
2019-03-06T08:25:44.591Z,15.39
2019-03-06T08:28:14.223Z,14.95
2019-03-06T08:30:44.903Z,15.23
2019-03-06T08:33:18.191Z,15.96
2019-03-06T08:35:44.036Z,15.64
2019-03-06T08:38:12.884Z,15.70
2019-03-06T08:40:44.729Z,15.44
2019-03-06T08:43:13.431Z,15.24
2019-03-06T08:45:52.856Z,14.55
2019-03-06T08:48:38.241Z,16.13
2019-03-06T08:51:11.325Z,17.73
2019-03-06T08:56:29.425Z,21.12
2019-03-06T08:58:59.685Z,22.66
2019-03-06T09:01:45.973Z,23.67
2019-03-06T09:04:22.649Z,24.00
2019-03-06T09:07:08.976Z,24.27
2019-03-06T09:09:45.574Z,23.77
2019-03-06T09:12:22.059Z,23.23
2019-03-06T09:15:10.713Z,20.95
2019-03-06T09:17:47.574Z,22.43
2019-03-06T09:20:38.265Z,22.88
2019-03-06T09:23:23.431Z,22.42
2019-03-06T09:26:08.288Z,21.80
2019-03-06T09:29:00.988Z,22.75
2019-03-06T09:31:26.709Z,24.00
2019-03-06T09:33:57.049Z,25.92
2019-03-06T09:36:45.507Z,23.64
2019-03-06T09:39:18.236Z,20.41
2019-03-06T09:41:54.360Z,19.49
2019-03-06T09:44:41.085Z,21.84
2019-03-06T09:47:27.395Z,23.99
2019-03-06T09:50:12.668Z,25.85
2019-03-06T09:52:52.196Z,25.95
2019-03-06T09:55:40.585Z,25.08
2019-03-06T09:58:27.242Z,27.46
2019-03-06T10:01:03.282Z,28.66
2019-03-06T10:03:43.021Z,24.78
2019-03-06T10:06:22.499Z,25.41
2019-03-06T10:09:08.826Z,27.43
2019-03-06T10:11:48.279Z,29.82
2019-03-06T10:14:24.350Z,30.37
2019-03-06T10:17:00.421Z,30.99
2019-03-06T10:19:30.762Z,29.96
2019-03-06T10:21:59.471Z,27.18
2019-03-06T10:24:28.196Z,26.38
2019-03-06T10:26:56.938Z,25.82
2019-03-06T10:29:25.919Z,27.08
2019-03-06T10:31:54.646Z,28.66
2019-03-06T10:34:23.685Z,26.83
2019-03-06T10:36:52.470Z,25.34
2019-03-06T10:39:21.157Z,23.87
2019-03-06T10:41:50.032Z,25.22
2019-03-06T10:44:18.736Z,24.72
2019-03-06T10:46:47.396Z,27.57
2019-03-06T10:49:16.106Z,30.36
2019-03-06T10:51:44.814Z,31.60
2019-03-06T10:54:13.495Z,31.37
2019-03-06T10:56:42.221Z,29.06
2019-03-06T10:59:11.043Z,30.99
2019-03-06T11:01:39.873Z,30.44
2019-03-06T11:04:25.460Z,31.75
2019-03-06T11:06:54.421Z,32.15
2019-03-06T11:09:24.567Z,31.44
2019-03-06T11:11:53.408Z,29.96
2019-03-06T11:14:22.135Z,29.67
2019-03-06T11:16:50.880Z,27.79
2019-03-06T11:19:20.024Z,29.08
2019-03-06T11:21:49.113Z,28.93
2019-03-06T11:24:17.852Z,26.60
2019-03-06T11:26:46.665Z,30.17
2019-03-06T11:29:15.643Z,27.46
2019-03-06T11:31:44.451Z,27.36
2019-03-06T11:34:13.283Z,25.85
2019-03-06T11:36:44.529Z,26.36
2019-03-06T11:39:13.730Z,26.17
2019-03-06T11:41:42.704Z,27.40
2019-03-06T11:44:11.728Z,26.81
2019-03-06T11:46:40.419Z,27.48
2019-03-06T11:49:09.106Z,26.11
2019-03-06T11:51:38.105Z,26.75
2019-03-06T11:54:09.714Z,25.28
2019-03-06T11:56:38.836Z,24.95
2019-03-06T11:59:07.678Z,26.65
2019-03-06T12:01:44.757Z,25.95
2019-03-06T12:04:07.993Z,26.32
2019-03-06T12:06:36.816Z,23.90
2019-03-06T12:09:08.467Z,26.39
2019-03-06T12:11:37.130Z,29.52
2019-03-06T12:14:06.114Z,31.38
2019-03-06T12:16:41.552Z,32.16
2019-03-06T12:19:05.559Z,33.75
2019-03-06T12:21:34.263Z,31.35
2019-03-06T12:24:02.991Z,32.60
2019-03-06T12:26:31.708Z,30.95
2019-03-06T12:29:00.747Z,31.32
2019-03-06T12:31:29.563Z,30.77
2019-03-06T12:33:58.249Z,32.03
2019-03-06T12:36:26.945Z,34.23
2019-03-06T12:38:57.769Z,34.19
2019-03-06T12:41:26.128Z,35.07
2019-03-06T12:43:54.914Z,32.49
2019-03-06T12:46:24.401Z,31.89
2019-03-06T12:48:56.229Z,33.17
2019-03-06T12:51:24.952Z,33.30
2019-03-06T12:53:53.853Z,35.17
2019-03-06T12:56:22.751Z,34.36
2019-03-06T12:58:51.485Z,31.38
2019-03-06T13:01:20.667Z,29.61
2019-03-06T13:03:49.401Z,31.32
2019-03-06T13:07:38.705Z,30.66
2019-03-06T13:08:50.686Z,31.35
2019-03-06T13:11:19.594Z,30.57
2019-03-06T13:13:48.591Z,31.39
2019-03-06T13:16:17.482Z,32.96
2019-03-06T13:18:46.264Z,33.79
2019-03-06T13:21:15.598Z,34.08
2019-03-06T13:23:44.710Z,33.84
2019-03-06T13:26:13.398Z,34.07
2019-03-06T13:28:42.225Z,35.23
2019-03-06T13:31:10.937Z,33.93
2019-03-06T13:33:44.133Z,33.46
2019-03-06T13:36:13.112Z,33.54
2019-03-06T13:38:41.908Z,30.01
2019-03-06T13:41:10.666Z,27.14
2019-03-06T13:43:39.446Z,24.48
2019-03-06T13:46:08.245Z,26.43
2019-03-06T13:48:36.958Z,28.94
2019-03-06T13:51:05.972Z,28.32
2019-03-06T13:53:34.653Z,29.17
2019-03-06T13:56:03.851Z,28.48
2019-03-06T13:58:32.801Z,28.82
2019-03-06T14:01:02.118Z,28.82
2019-03-06T14:03:30.981Z,30.24
2019-03-06T14:06:00.185Z,30.26
2019-03-06T14:08:29.176Z,30.53
2019-03-06T14:10:57.920Z,26.77
2019-03-06T14:13:26.838Z,25.06
2019-03-06T14:15:55.527Z,24.39
2019-03-06T14:18:24.321Z,23.36
2019-03-06T14:20:53.327Z,24.95
2019-03-06T14:23:22.206Z,26.76
2019-03-06T14:25:51.102Z,26.55
2019-03-06T14:28:19.877Z,25.28
2019-03-06T14:30:48.639Z,24.87
2019-03-06T14:33:17.302Z,25.23
2019-03-06T14:35:46.350Z,24.72
2019-03-06T14:38:15.062Z,26.22
2019-03-06T14:40:44.442Z,25.72
2019-03-06T14:43:14.695Z,26.48
2019-03-06T14:45:43.609Z,26.30
2019-03-06T14:48:12.387Z,26.82
2019-03-06T14:50:41.441Z,26.85
2019-03-06T14:53:10.144Z,25.46
2019-03-06T14:55:38.819Z,26.48
2019-03-06T14:58:07.505Z,26.50
2019-03-06T15:00:36.321Z,23.05
2019-03-06T15:03:05.075Z,21.59
2019-03-06T15:05:33.719Z,19.94
2019-03-06T15:08:02.608Z,19.36
2019-03-06T15:10:31.530Z,18.72
2019-03-06T15:13:00.362Z,17.98
2019-03-06T15:15:29.201Z,17.69
2019-03-06T15:17:58.027Z,17.36
2019-03-06T15:20:28.730Z,17.09
2019-03-06T15:22:58.597Z,16.77
2019-03-06T15:25:31.164Z,16.52
2019-03-06T15:27:59.952Z,16.31
2019-03-06T15:30:28.660Z,16.18
2019-03-06T15:32:57.406Z,15.93
2019-03-06T15:35:26.837Z,15.79
2019-03-06T15:37:55.615Z,15.56
2019-03-06T15:40:33.504Z,15.46
2019-03-06T15:43:02.264Z,15.28
2019-03-06T15:45:34.070Z,15.14
2019-03-06T15:48:02.819Z,15.03
2019-03-06T15:50:31.686Z,14.91
2019-03-06T15:53:00.360Z,14.83
2019-03-06T15:55:29.752Z,14.69
2019-03-06T15:57:58.548Z,14.56
2019-03-06T16:00:45.885Z,14.38
2019-03-06T16:03:10.244Z,14.21
2019-03-06T16:05:39.923Z,14.14
2019-03-06T16:08:10.014Z,14.13
2019-03-06T16:10:40.243Z,14.07
2019-03-06T16:13:09.200Z,13.83
2019-03-06T16:15:37.882Z,13.70
2019-03-06T16:18:08.183Z,13.54
2019-03-06T16:20:37.725Z,13.45
2019-03-06T16:23:07.360Z,13.24
2019-03-06T16:25:38.996Z,13.13
2019-03-06T16:28:06.888Z,12.95
2019-03-06T16:30:35.575Z,12.87
2019-03-06T16:33:04.369Z,12.79
2019-03-06T16:35:33.155Z,12.61
2019-03-06T16:38:01.849Z,12.58
2019-03-06T16:40:31.107Z,12.45
2019-03-06T16:43:00.996Z,12.35
2019-03-06T16:45:30.557Z,12.25
2019-03-06T16:48:00.508Z,12.12
2019-03-06T16:50:30.862Z,12.01
2019-03-06T16:52:59.743Z,11.95
2019-03-06T16:55:28.614Z,11.90
2019-03-06T16:57:57.582Z,11.77
2019-03-06T17:00:34.537Z,11.70
2019-03-06T17:03:06.185Z,11.72
2019-03-06T17:05:35.355Z,11.61
2019-03-06T17:08:08.752Z,11.46
2019-03-06T17:10:38.790Z,11.52
2019-03-06T17:13:07.964Z,11.48
2019-03-06T17:15:36.839Z,11.42
2019-03-06T17:18:06.568Z,11.34
2019-03-06T17:20:36.891Z,11.41
2019-03-06T17:23:06.768Z,11.55
2019-03-06T17:25:35.798Z,11.57
2019-03-06T17:28:05.268Z,11.44
2019-03-06T17:30:35.410Z,11.33
2019-03-06T17:33:09.548Z,11.27
2019-03-06T17:35:39.077Z,11.19
2019-03-06T17:38:10.245Z,11.28
2019-03-06T17:40:39.265Z,11.30
2019-03-06T17:43:09.854Z,11.19
2019-03-06T17:45:39.413Z,11.12
2019-03-06T17:48:09.651Z,11.19
2019-03-06T17:50:38.445Z,11.17
2019-03-06T17:53:07.537Z,11.08
2019-03-06T17:55:36.316Z,10.95
2019-03-06T17:58:05.641Z,10.83
2019-03-06T18:00:42.258Z,10.80
2019-03-06T18:03:12.749Z,10.83
2019-03-06T18:05:41.919Z,10.75
2019-03-06T18:08:11.601Z,10.60
2019-03-06T18:10:40.377Z,10.43
2019-03-06T18:13:09.433Z,10.35
2019-03-06T18:15:38.116Z,10.34
2019-03-06T18:18:06.783Z,10.31
2019-03-06T18:20:35.527Z,10.27
2019-03-06T18:23:04.213Z,10.11
2019-03-06T18:25:32.879Z,9.98
2019-03-06T18:28:01.580Z,9.85
2019-03-06T18:30:30.237Z,9.75
2019-03-06T18:32:59.003Z,9.73
2019-03-06T18:35:27.668Z,9.63
2019-03-06T18:37:56.737Z,9.56
2019-03-06T18:40:28.579Z,9.48
2019-03-06T18:42:57.284Z,9.38
2019-03-06T18:45:26.091Z,9.39
2019-03-06T18:47:54.817Z,9.40
2019-03-06T18:50:24.683Z,9.32
2019-03-06T18:52:53.474Z,9.23
2019-03-06T18:55:22.543Z,9.29
2019-03-06T18:57:51.211Z,9.37
2019-03-06T19:00:21.799Z,9.25
2019-03-06T19:02:50.762Z,9.18
2019-03-06T19:05:21.044Z,9.03
2019-03-06T19:07:50.620Z,8.97
2019-03-06T19:10:20.290Z,8.82
2019-03-06T19:12:49.205Z,8.70
2019-03-06T19:15:25.628Z,8.53
2019-03-06T19:17:54.333Z,8.55
2019-03-06T19:20:23.901Z,8.64
2019-03-06T19:22:53.264Z,8.72
2019-03-06T19:25:22.132Z,8.68
2019-03-06T19:27:51.170Z,8.64
2019-03-06T19:30:23.665Z,8.70
2019-03-06T19:32:52.467Z,8.74
2019-03-06T19:35:28.726Z,8.74
2019-03-06T19:37:57.445Z,8.70
2019-03-06T19:40:26.599Z,8.73
2019-03-06T19:42:55.271Z,8.69
2019-03-06T19:45:25.305Z,8.66
2019-03-06T19:47:53.951Z,8.59
2019-03-06T19:50:26.404Z,8.51
2019-03-06T19:52:55.836Z,8.44
2019-03-06T19:55:24.902Z,8.47
2019-03-06T19:57:59.072Z,8.37
2019-03-06T20:00:29.787Z,8.35
2019-03-06T20:02:59.580Z,8.18
2019-03-06T20:05:36.984Z,8.07
2019-03-06T20:08:13.525Z,7.96
2019-03-06T20:10:42.186Z,7.86
2019-03-06T20:13:12.416Z,7.79
2019-03-06T20:15:41.776Z,7.70
2019-03-06T20:18:11.015Z,7.66
2019-03-06T20:20:39.964Z,7.64
2019-03-06T20:23:09.065Z,7.69
2019-03-06T20:25:38.186Z,7.70
2019-03-06T20:28:07.343Z,7.73
2019-03-06T20:30:36.319Z,7.91
2019-03-06T20:33:05.999Z,8.06
2019-03-06T20:35:34.981Z,8.15
2019-03-06T20:38:03.660Z,8.16
2019-03-06T20:40:32.341Z,8.11
2019-03-06T20:43:01.010Z,8.13
2019-03-06T20:45:29.751Z,8.22
2019-03-06T20:47:58.593Z,8.36
2019-03-06T20:50:27.461Z,8.32
2019-03-06T20:52:56.714Z,8.31
2019-03-06T20:55:25.434Z,8.29
2019-03-06T20:57:54.366Z,8.45
2019-03-06T21:00:25.995Z,8.34
2019-03-06T21:02:54.659Z,8.45
2019-03-06T21:05:23.590Z,8.41
2019-03-06T21:07:52.296Z,8.29
2019-03-06T21:10:21.354Z,8.26
2019-03-06T21:12:50.018Z,8.20
2019-03-06T21:15:20.829Z,8.07
2019-03-06T21:17:49.574Z,8.09
2019-03-06T21:20:22.767Z,8.13
2019-03-06T21:22:51.448Z,8.09
2019-03-06T21:25:21.384Z,7.91
2019-03-06T21:27:50.519Z,7.92
2019-03-06T21:30:23.105Z,7.90
2019-03-06T21:32:51.833Z,7.78
2019-03-06T21:35:20.751Z,7.81
2019-03-06T21:37:49.481Z,7.85
2019-03-06T21:40:18.656Z,7.68
2019-03-06T21:42:47.893Z,7.59
2019-03-06T21:45:16.912Z,7.52
2019-03-06T21:47:45.549Z,7.52
2019-03-06T21:50:16.666Z,7.56
2019-03-06T21:52:45.337Z,7.55
2019-03-06T21:55:15.454Z,7.53
2019-03-06T21:57:44.411Z,7.57
2019-03-06T22:00:18.779Z,7.62
2019-03-06T22:02:47.443Z,7.54
2019-03-06T22:05:16.451Z,7.45
2019-03-06T22:07:45.130Z,7.50
2019-03-06T22:10:16.298Z,7.40
2019-03-06T22:12:45.260Z,7.34
2019-03-06T22:15:19.711Z,7.33
2019-03-06T22:17:48.423Z,7.16
2019-03-06T22:20:17.759Z,7.01
2019-03-06T22:22:46.433Z,6.91
2019-03-06T22:25:17.786Z,6.89
2019-03-06T22:27:46.488Z,6.87
2019-03-06T22:30:17.651Z,6.77
2019-03-06T22:32:46.324Z,6.71
2019-03-06T22:35:15.109Z,6.57
2019-03-06T22:37:43.856Z,6.44
2019-03-06T22:40:15.563Z,6.38
2019-03-06T22:42:44.249Z,6.38
2019-03-06T22:45:18.233Z,6.38
2019-03-06T22:47:48.506Z,6.36
2019-03-06T22:50:20.230Z,6.24
2019-03-06T22:52:49.523Z,6.27
2019-03-06T22:55:19.596Z,6.16
2019-03-06T22:57:48.317Z,6.18
2019-03-06T23:00:33.956Z,6.05
2019-03-06T23:03:02.720Z,5.97
2019-03-06T23:05:34.590Z,5.92
2019-03-06T23:08:03.411Z,5.90
2019-03-06T23:10:32.102Z,5.90
2019-03-06T23:13:00.759Z,5.83
2019-03-06T23:15:29.459Z,5.72
2019-03-06T23:17:58.345Z,5.75
2019-03-06T23:20:27.035Z,5.78
2019-03-06T23:22:55.751Z,5.71
2019-03-06T23:25:24.457Z,5.68
2019-03-06T23:27:53.250Z,5.65
2019-03-06T23:30:21.926Z,5.65
2019-03-06T23:32:50.798Z,5.57
2019-03-06T23:35:19.470Z,5.56
2019-03-06T23:37:48.250Z,5.62
2019-03-06T23:40:16.917Z,5.58
2019-03-06T23:42:47.788Z,5.59
2019-03-06T23:45:15.985Z,5.50
2019-03-06T23:47:44.662Z,5.54
2019-03-06T23:50:14.043Z,5.59
2019-03-06T23:53:02.189Z,5.62
2019-03-06T23:55:32.168Z,5.67
2019-03-06T23:58:00.864Z,5.74
